createdAt,value
2019-01-29T00:00:31.186Z,78.00
2019-01-29T00:02:58.668Z,77.87
2019-01-29T00:05:26.160Z,81.90
2019-01-29T00:07:53.669Z,82.53
2019-01-29T00:10:21.186Z,78.83
2019-01-29T00:12:48.701Z,77.30
2019-01-29T00:15:16.177Z,77.63
2019-01-29T00:17:43.713Z,76.23
2019-01-29T00:20:11.897Z,76.50
2019-01-29T00:22:39.374Z,69.80
2019-01-29T00:25:07.016Z,73.73
2019-01-29T00:27:34.505Z,68.97
2019-01-29T00:30:02.010Z,69.83
2019-01-29T00:32:29.530Z,65.50
2019-01-29T00:34:57.029Z,64.40
2019-01-29T00:37:24.512Z,62.63
2019-01-29T00:39:52.029Z,58.57
2019-01-29T00:42:19.522Z,58.27
2019-01-29T00:44:46.997Z,58.50
2019-01-29T00:47:14.505Z,58.93
2019-01-29T00:49:41.973Z,54.30
2019-01-29T00:52:09.473Z,56.60
2019-01-29T00:54:36.943Z,56.63
2019-01-29T00:57:04.428Z,56.07
2019-01-29T00:59:31.941Z,59.60
2019-01-29T01:01:59.425Z,62.60
2019-01-29T01:04:26.906Z,60.60
2019-01-29T01:06:54.389Z,57.87
2019-01-29T01:09:21.873Z,56.33
2019-01-29T01:11:49.407Z,56.77
2019-01-29T01:14:16.881Z,55.60
2019-01-29T01:16:44.417Z,57.33
2019-01-29T01:19:11.889Z,57.53
2019-01-29T01:21:39.469Z,55.40
2019-01-29T01:24:06.985Z,55.57
2019-01-29T01:26:34.445Z,51.87
2019-01-29T01:29:01.925Z,52.40
2019-01-29T01:31:29.441Z,53.23
2019-01-29T01:33:56.927Z,48.40
2019-01-29T01:36:24.413Z,53.23
2019-01-29T01:38:51.937Z,50.67
2019-01-29T01:41:19.425Z,49.07
2019-01-29T01:43:46.905Z,50.63
2019-01-29T01:46:14.425Z,53.87
2019-01-29T01:48:41.904Z,51.60
2019-01-29T01:51:09.381Z,48.93
2019-01-29T01:53:36.901Z,49.37
2019-01-29T01:56:04.508Z,48.67
2019-01-29T01:58:31.983Z,47.10
2019-01-29T02:00:59.508Z,47.03
2019-01-29T02:03:27.019Z,45.77
2019-01-29T02:05:54.529Z,44.97
2019-01-29T02:08:22.058Z,44.17
2019-01-29T02:10:49.548Z,42.73
2019-01-29T02:13:17.024Z,44.57
2019-01-29T02:15:44.552Z,44.90
2019-01-29T02:18:12.037Z,45.37
2019-01-29T02:20:39.523Z,42.80
2019-01-29T02:23:08.032Z,47.40
2019-01-29T02:25:35.905Z,46.50
2019-01-29T02:28:03.445Z,40.57
2019-01-29T02:30:30.920Z,44.43
2019-01-29T02:32:58.432Z,45.77
2019-01-29T02:35:25.947Z,43.57
2019-01-29T02:37:53.432Z,40.40
2019-01-29T02:40:26.243Z,44.33
2019-01-29T02:42:53.743Z,42.87
2019-01-29T02:45:21.656Z,46.10
2019-01-29T02:47:49.128Z,46.20
2019-01-29T02:50:17.076Z,49.53
2019-01-29T02:52:44.653Z,49.30
2019-01-29T02:55:12.560Z,49.63
2019-01-29T02:57:40.114Z,47.27
2019-01-29T03:00:14.036Z,49.80
2019-01-29T03:02:41.522Z,50.33
2019-01-29T03:05:10.192Z,52.60
2019-01-29T03:07:37.724Z,56.00
2019-01-29T03:10:07.234Z,55.90
2019-01-29T03:12:34.724Z,56.03
2019-01-29T03:15:02.387Z,56.63
2019-01-29T03:17:29.849Z,61.10
2019-01-29T03:19:57.321Z,65.33
2019-01-29T03:22:24.848Z,68.90
2019-01-29T03:24:52.344Z,63.13
2019-01-29T03:27:19.865Z,68.60
2019-01-29T03:29:47.388Z,69.37
2019-01-29T03:32:14.874Z,67.43
2019-01-29T03:34:42.368Z,68.90
2019-01-29T03:37:09.878Z,63.40
2019-01-29T03:39:37.351Z,62.93
2019-01-29T03:42:04.968Z,61.77
2019-01-29T03:44:32.484Z,58.83
2019-01-29T03:47:00.003Z,58.50
2019-01-29T03:49:27.502Z,57.00
2019-01-29T03:51:54.961Z,51.20
2019-01-29T03:54:22.449Z,49.90
2019-01-29T03:56:50.018Z,50.37
2019-01-29T03:59:17.496Z,48.60
2019-01-29T04:01:44.965Z,49.87
2019-01-29T04:04:12.506Z,49.00
2019-01-29T04:06:39.960Z,49.70
2019-01-29T04:09:07.993Z,48.53
2019-01-29T04:11:35.568Z,45.70
2019-01-29T04:14:03.137Z,47.63
2019-01-29T04:16:30.627Z,45.30
2019-01-29T04:18:58.195Z,47.43
2019-01-29T04:21:25.672Z,43.20
2019-01-29T04:23:53.140Z,42.97
2019-01-29T04:26:20.701Z,43.13
2019-01-29T04:28:48.176Z,46.23
2019-01-29T04:31:15.651Z,46.30
2019-01-29T04:33:43.172Z,47.13
2019-01-29T04:36:10.652Z,48.07
2019-01-29T04:38:38.124Z,51.10
2019-01-29T04:41:05.629Z,50.93
2019-01-29T04:43:33.116Z,51.20
2019-01-29T04:46:00.613Z,49.07
2019-01-29T04:48:28.133Z,46.73
2019-01-29T04:50:55.604Z,47.40
2019-01-29T04:53:23.180Z,46.77
2019-01-29T04:55:50.712Z,47.90
2019-01-29T04:58:18.196Z,46.03
2019-01-29T05:00:45.844Z,45.77
2019-01-29T05:03:13.365Z,44.60
2019-01-29T05:05:40.833Z,45.77
2019-01-29T05:08:08.316Z,45.43
2019-01-29T05:10:35.846Z,45.23
2019-01-29T05:13:03.515Z,44.93
2019-01-29T05:15:30.995Z,46.03
2019-01-29T05:17:58.539Z,47.67
2019-01-29T05:20:26.025Z,45.50
2019-01-29T05:22:53.480Z,47.87
2019-01-29T05:25:21.006Z,50.57
2019-01-29T05:27:48.506Z,55.07
2019-01-29T05:30:20.618Z,53.17
2019-01-29T05:32:47.345Z,53.03
2019-01-29T05:35:14.840Z,53.00
2019-01-29T05:37:42.316Z,54.10
2019-01-29T05:40:12.397Z,53.27
2019-01-29T05:42:39.997Z,55.33
2019-01-29T05:45:10.953Z,51.20
2019-01-29T05:47:38.436Z,51.93
2019-01-29T05:50:06.640Z,48.70
2019-01-29T05:52:34.120Z,49.50
2019-01-29T05:55:01.618Z,47.20
2019-01-29T05:57:29.156Z,50.13
2019-01-29T05:59:56.648Z,51.73
2019-01-29T06:02:24.146Z,51.13
2019-01-29T06:04:51.674Z,47.53
2019-01-29T06:07:19.148Z,48.70
2019-01-29T06:09:46.614Z,50.20
2019-01-29T06:12:14.134Z,53.07
2019-01-29T06:14:41.636Z,50.33
2019-01-29T06:17:09.118Z,51.63
2019-01-29T06:19:36.660Z,55.30
2019-01-29T06:22:04.132Z,51.43
2019-01-29T06:24:31.623Z,49.23
2019-01-29T06:26:59.109Z,47.67
2019-01-29T06:29:26.722Z,44.37
2019-01-29T06:31:54.197Z,46.63
2019-01-29T06:34:21.790Z,47.93
2019-01-29T06:36:50.906Z,45.80
2019-01-29T06:39:18.611Z,44.40
2019-01-29T06:41:46.097Z,47.23
2019-01-29T06:44:13.612Z,47.57
2019-01-29T06:46:41.098Z,45.70
2019-01-29T06:49:08.785Z,43.90
2019-01-29T06:51:36.382Z,47.07
2019-01-29T06:54:04.177Z,46.90
2019-01-29T06:56:31.698Z,47.90
2019-01-29T06:58:59.205Z,44.77
2019-01-29T07:01:26.712Z,42.37
2019-01-29T07:03:54.208Z,44.77
2019-01-29T07:06:21.711Z,45.10
2019-01-29T07:08:49.164Z,45.37
2019-01-29T07:11:16.688Z,49.07
2019-01-29T07:13:44.291Z,41.93
2019-01-29T07:16:20.782Z,46.07
2019-01-29T07:19:02.034Z,45.30
2019-01-29T07:21:29.529Z,41.73
2019-01-29T07:23:57.000Z,45.80
2019-01-29T07:26:24.533Z,48.23
2019-01-29T07:28:52.018Z,49.20
2019-01-29T07:31:19.500Z,50.50
2019-01-29T07:33:47.020Z,49.83
2019-01-29T07:36:14.513Z,45.43
2019-01-29T07:38:41.978Z,45.57
2019-01-29T07:41:09.508Z,47.57
2019-01-29T07:43:37.018Z,46.60
2019-01-29T07:46:04.592Z,45.60
2019-01-29T07:48:32.114Z,45.53
2019-01-29T07:50:59.596Z,43.97
2019-01-29T07:53:27.147Z,44.70
2019-01-29T07:55:54.698Z,43.93
2019-01-29T07:58:22.178Z,42.43
2019-01-29T08:00:49.662Z,38.77
2019-01-29T08:03:17.626Z,42.03
2019-01-29T08:05:45.457Z,41.27
2019-01-29T08:08:13.176Z,43.23
2019-01-29T08:10:40.698Z,40.77
2019-01-29T08:13:08.240Z,44.57
2019-01-29T08:15:35.742Z,47.00
2019-01-29T08:18:04.043Z,42.43
2019-01-29T08:20:31.520Z,45.97
2019-01-29T08:22:59.008Z,45.03
2019-01-29T08:25:26.552Z,42.67
2019-01-29T08:27:54.027Z,47.37
2019-01-29T08:30:21.616Z,42.50
2019-01-29T08:32:49.153Z,42.67
2019-01-29T08:35:16.831Z,42.30
2019-01-29T08:37:44.322Z,42.57
2019-01-29T08:40:12.296Z,41.53
2019-01-29T08:42:39.792Z,43.93
2019-01-29T08:45:08.548Z,43.27
2019-01-29T08:47:36.050Z,42.77
2019-01-29T08:50:05.986Z,46.90
2019-01-29T08:52:33.725Z,44.43
2019-01-29T08:55:01.220Z,44.03
2019-01-29T08:57:28.717Z,45.33
2019-01-29T08:59:56.235Z,46.10
2019-01-29T09:02:23.730Z,45.63
2019-01-29T09:04:51.230Z,41.53
2019-01-29T09:07:18.772Z,43.17
2019-01-29T09:09:46.259Z,41.17
2019-01-29T09:12:13.768Z,38.97
2019-01-29T09:14:41.286Z,37.40
2019-01-29T09:17:08.835Z,39.10
2019-01-29T09:19:36.307Z,38.53
2019-01-29T09:22:03.808Z,37.83
2019-01-29T09:24:31.333Z,38.00
2019-01-29T09:26:58.878Z,39.70
2019-01-29T09:29:26.365Z,39.73
2019-01-29T09:31:53.858Z,40.87
2019-01-29T09:34:21.397Z,38.53
2019-01-29T09:36:48.898Z,36.47
2019-01-29T09:39:16.393Z,34.93
2019-01-29T09:41:43.887Z,36.13
2019-01-29T09:44:11.377Z,36.20
2019-01-29T09:46:38.873Z,37.03
2019-01-29T09:49:06.418Z,36.00
2019-01-29T09:51:33.937Z,33.33
2019-01-29T09:54:01.429Z,34.20
2019-01-29T09:56:28.993Z,35.20
2019-01-29T09:58:56.510Z,32.83
2019-01-29T10:01:24.011Z,32.90
2019-01-29T10:03:51.518Z,31.33
2019-01-29T10:06:19.018Z,32.07
2019-01-29T10:08:46.551Z,29.13
2019-01-29T10:11:14.065Z,29.83
2019-01-29T10:13:41.529Z,30.13
2019-01-29T10:16:09.049Z,30.23
2019-01-29T10:18:36.583Z,26.70
2019-01-29T10:21:04.903Z,29.70
2019-01-29T10:23:32.393Z,28.60
2019-01-29T10:25:59.881Z,28.83
2019-01-29T10:28:27.397Z,27.53
2019-01-29T10:30:54.932Z,29.67
2019-01-29T10:33:22.422Z,27.43
2019-01-29T10:35:49.966Z,27.97
2019-01-29T10:38:19.081Z,25.87
2019-01-29T10:40:46.567Z,29.53
2019-01-29T10:43:14.094Z,26.33
2019-01-29T10:45:41.589Z,27.83
2019-01-29T10:48:09.074Z,28.07
2019-01-29T10:50:36.687Z,26.10
2019-01-29T10:53:04.320Z,27.23
2019-01-29T10:55:31.821Z,26.03
2019-01-29T10:57:59.361Z,26.57
2019-01-29T11:00:32.386Z,27.70
2019-01-29T11:02:59.874Z,29.53
2019-01-29T11:05:27.391Z,24.73
2019-01-29T11:07:54.892Z,25.97
2019-01-29T11:10:22.435Z,25.47
2019-01-29T11:12:49.960Z,20.20
2019-01-29T11:15:26.381Z,21.20
2019-01-29T11:17:54.013Z,19.43
2019-01-29T11:20:22.209Z,18.43
2019-01-29T11:22:49.742Z,19.40
2019-01-29T11:25:20.097Z,18.97
2019-01-29T11:27:47.578Z,17.63
2019-01-29T11:30:17.761Z,17.23
2019-01-29T11:32:45.273Z,18.83
2019-01-29T11:35:13.853Z,16.30
2019-01-29T11:37:41.395Z,19.40
2019-01-29T11:40:12.354Z,16.53
2019-01-29T11:42:39.906Z,18.27
2019-01-29T11:45:11.177Z,16.90
2019-01-29T11:47:38.665Z,16.77
2019-01-29T11:50:07.014Z,18.00
2019-01-29T11:52:34.498Z,17.50
2019-01-29T11:55:02.018Z,18.20
2019-01-29T11:57:29.515Z,18.77
2019-01-29T11:59:57.053Z,18.93
2019-01-29T12:02:28.420Z,19.07
2019-01-29T12:04:56.876Z,16.83
2019-01-29T12:07:24.614Z,15.87
2019-01-29T12:09:52.143Z,15.60
2019-01-29T12:12:19.710Z,17.07
2019-01-29T12:14:47.426Z,16.27
2019-01-29T12:17:15.379Z,15.90
2019-01-29T12:19:43.101Z,15.30
2019-01-29T12:22:10.641Z,16.90
2019-01-29T12:24:40.537Z,17.53
2019-01-29T12:27:08.067Z,16.13
2019-01-29T12:29:35.591Z,19.00
2019-01-29T12:32:03.728Z,15.30
2019-01-29T12:34:31.299Z,16.40
2019-01-29T12:36:58.897Z,16.63
2019-01-29T12:39:26.429Z,15.13
2019-01-29T12:41:53.937Z,17.60
2019-01-29T12:44:21.515Z,18.80
2019-01-29T12:46:49.021Z,15.57
2019-01-29T12:49:16.540Z,19.47
2019-01-29T12:52:07.848Z,15.87
2019-01-29T12:54:35.363Z,18.77
2019-01-29T12:57:02.878Z,28.33
2019-01-29T12:59:30.436Z,26.40
2019-01-29T13:01:57.977Z,38.23
2019-01-29T13:04:25.513Z,19.80
2019-01-29T13:06:53.063Z,38.63
2019-01-29T13:09:20.576Z,17.27
2019-01-29T13:11:48.151Z,24.53
2019-01-29T13:14:15.655Z,20.13
2019-01-29T13:16:43.188Z,16.33
2019-01-29T13:19:10.765Z,13.30
2019-01-29T13:21:38.301Z,13.90
2019-01-29T13:24:06.230Z,14.77
2019-01-29T13:26:33.822Z,17.07
2019-01-29T13:29:01.342Z,13.57
2019-01-29T13:31:28.851Z,14.37
2019-01-29T13:33:56.531Z,15.03
2019-01-29T13:36:24.120Z,13.77
2019-01-29T13:38:51.643Z,13.97
2019-01-29T13:41:19.473Z,18.10
2019-01-29T13:43:46.991Z,22.50
2019-01-29T13:46:15.309Z,12.57
2019-01-29T13:48:42.882Z,14.87
2019-01-29T13:51:12.105Z,14.50
2019-01-29T13:53:39.635Z,14.07
2019-01-29T13:56:07.183Z,13.77
2019-01-29T13:58:34.679Z,13.13
2019-01-29T14:01:02.248Z,14.27
2019-01-29T14:03:29.854Z,15.40
2019-01-29T14:05:57.399Z,13.70
2019-01-29T14:08:24.903Z,15.10
2019-01-29T14:10:52.451Z,16.37
2019-01-29T14:13:19.975Z,13.53
2019-01-29T14:15:52.056Z,15.70
2019-01-29T14:18:21.752Z,15.17
2019-01-29T14:20:49.292Z,15.67
2019-01-29T14:23:16.845Z,15.93
2019-01-29T14:25:44.362Z,14.87
2019-01-29T14:28:11.869Z,16.77
2019-01-29T14:30:39.423Z,32.77
2019-01-29T14:33:07.454Z,16.23
2019-01-29T14:35:35.017Z,26.03
2019-01-29T14:38:40.213Z,21.83
2019-01-29T14:41:07.731Z,16.93
2019-01-29T14:43:35.956Z,15.33
2019-01-29T14:46:03.533Z,13.20
2019-01-29T14:48:31.078Z,13.70
2019-01-29T14:50:58.566Z,12.70
2019-01-29T14:53:26.732Z,12.90
2019-01-29T14:55:54.303Z,13.00
2019-01-29T14:58:21.819Z,13.47
2019-01-29T15:00:49.370Z,12.57
2019-01-29T15:03:16.930Z,24.47
2019-01-29T15:05:44.466Z,20.20
2019-01-29T15:08:11.981Z,39.10
2019-01-29T15:10:39.495Z,13.50
2019-01-29T15:13:06.973Z,13.93
2019-01-29T15:15:37.609Z,13.63
2019-01-29T15:18:13.871Z,24.93
2019-01-29T15:20:41.354Z,14.77
2019-01-29T15:23:08.837Z,16.57
2019-01-29T15:25:36.360Z,15.43
2019-01-29T15:28:04.024Z,24.50
2019-01-29T15:30:32.558Z,16.40
2019-01-29T15:33:00.105Z,15.23
2019-01-29T15:35:27.637Z,15.23
2019-01-29T15:37:55.277Z,18.07
2019-01-29T15:40:22.911Z,16.87
2019-01-29T15:42:50.623Z,14.37
2019-01-29T15:45:18.537Z,13.53
2019-01-29T15:47:46.083Z,12.80
2019-01-29T15:50:16.822Z,13.17
2019-01-29T15:52:48.638Z,14.47
2019-01-29T15:55:14.005Z,15.93
2019-01-29T15:57:42.618Z,21.03
2019-01-29T16:00:22.433Z,23.50
2019-01-29T16:02:49.942Z,22.83
2019-01-29T16:05:19.955Z,14.83
2019-01-29T16:07:47.511Z,14.67
2019-01-29T16:10:17.670Z,12.63
2019-01-29T16:12:45.243Z,14.13
2019-01-29T16:15:15.211Z,15.20
2019-01-29T16:17:42.758Z,14.87
2019-01-29T16:20:13.822Z,15.83
2019-01-29T16:22:41.460Z,16.57
2019-01-29T16:25:10.393Z,18.77
2019-01-29T16:27:37.988Z,18.67
2019-01-29T16:30:12.172Z,18.03
2019-01-29T16:32:39.774Z,19.10
2019-01-29T16:35:08.162Z,18.40
2019-01-29T16:37:35.715Z,18.87
2019-01-29T16:40:04.546Z,17.90
2019-01-29T16:42:32.114Z,18.60
2019-01-29T16:44:59.723Z,19.47
2019-01-29T16:47:27.290Z,18.10
2019-01-29T16:49:54.875Z,17.73
2019-01-29T16:52:22.333Z,19.60
2019-01-29T16:54:49.943Z,21.93
2019-01-29T16:57:17.585Z,24.97
2019-01-29T16:59:45.257Z,21.50
2019-01-29T17:02:12.970Z,23.80
2019-01-29T17:04:40.479Z,24.63
2019-01-29T17:07:08.006Z,24.47
2019-01-29T17:09:35.579Z,25.07
2019-01-29T17:12:03.090Z,21.83
2019-01-29T17:14:30.631Z,26.23
2019-01-29T17:16:58.223Z,27.97
2019-01-29T17:19:25.735Z,28.70
2019-01-29T17:21:53.975Z,30.00
2019-01-29T17:24:21.513Z,25.20
2019-01-29T17:26:49.017Z,27.10
2019-01-29T17:29:16.906Z,26.10
2019-01-29T17:31:44.390Z,25.73
2019-01-29T17:34:11.927Z,24.67
2019-01-29T17:36:39.486Z,21.40
2019-01-29T17:39:07.834Z,25.43
2019-01-29T17:41:35.415Z,20.97
2019-01-29T17:44:03.443Z,19.13
2019-01-29T17:46:31.288Z,25.37
2019-01-29T17:48:58.914Z,25.17
2019-01-29T17:51:26.407Z,21.90
2019-01-29T17:53:53.944Z,23.70
2019-01-29T17:56:21.510Z,23.97
2019-01-29T17:58:49.016Z,20.80
2019-01-29T18:01:16.646Z,22.10
2019-01-29T18:03:44.198Z,21.33
2019-01-29T18:06:11.739Z,22.23
2019-01-29T18:08:49.451Z,22.03
2019-01-29T18:11:08.578Z,20.93
2019-01-29T18:13:36.087Z,21.87
2019-01-29T18:16:03.729Z,22.83
2019-01-29T18:18:31.246Z,26.93
2019-01-29T18:20:58.780Z,24.80
2019-01-29T18:23:26.311Z,22.60
2019-01-29T18:25:53.854Z,20.80
2019-01-29T18:28:21.490Z,22.90
2019-01-29T18:30:49.005Z,20.93
2019-01-29T18:33:16.566Z,23.57
2019-01-29T18:35:44.194Z,21.80
2019-01-29T18:38:11.803Z,20.67
2019-01-29T18:40:42.573Z,20.47
2019-01-29T18:43:10.118Z,22.83
2019-01-29T18:45:37.691Z,21.33
2019-01-29T18:48:05.276Z,19.67
2019-01-29T18:50:32.810Z,18.07
2019-01-29T18:53:00.362Z,20.57
2019-01-29T18:55:27.940Z,19.27
2019-01-29T18:57:55.470Z,20.50
2019-01-29T19:00:23.347Z,19.57
2019-01-29T19:02:50.910Z,20.33
2019-01-29T19:05:19.597Z,21.13
2019-01-29T19:07:47.111Z,19.83
2019-01-29T19:10:16.280Z,20.70
2019-01-29T19:12:43.880Z,20.60
2019-01-29T19:15:15.773Z,19.90
2019-01-29T19:17:43.335Z,20.27
2019-01-29T19:20:11.878Z,18.27
2019-01-29T19:22:39.501Z,20.07
2019-01-29T19:25:09.331Z,20.33
2019-01-29T19:27:36.844Z,20.17
2019-01-29T19:30:06.641Z,17.90
2019-01-29T19:32:34.199Z,18.67
2019-01-29T19:35:01.750Z,17.60
2019-01-29T19:37:29.371Z,17.03
2019-01-29T19:39:56.907Z,16.40
2019-01-29T19:42:27.539Z,16.20
2019-01-29T19:44:55.383Z,17.73
2019-01-29T19:47:22.897Z,16.73
2019-01-29T19:49:50.551Z,16.43
2019-01-29T19:52:18.053Z,19.53
2019-01-29T19:54:45.594Z,20.00
2019-01-29T19:57:13.133Z,18.73
2019-01-29T19:59:40.646Z,20.87
2019-01-29T20:02:08.206Z,19.53
2019-01-29T20:04:35.723Z,20.10
2019-01-29T20:07:03.247Z,20.60
2019-01-29T20:09:30.834Z,21.50
2019-01-29T20:11:58.359Z,22.63
2019-01-29T20:14:25.865Z,21.67
2019-01-29T20:16:53.421Z,22.17
2019-01-29T20:19:20.985Z,22.67
2019-01-29T20:21:48.528Z,21.63
2019-01-29T20:24:17.081Z,22.03
2019-01-29T20:26:44.728Z,20.73
2019-01-29T20:29:12.270Z,20.57
2019-01-29T20:31:39.787Z,24.23
2019-01-29T20:34:07.330Z,21.33
2019-01-29T20:36:34.888Z,22.60
2019-01-29T20:39:04.847Z,22.23
2019-01-29T20:41:32.418Z,23.17
2019-01-29T20:43:59.940Z,23.13
2019-01-29T20:46:27.463Z,23.83
2019-01-29T20:48:55.017Z,24.03
2019-01-29T20:51:22.577Z,26.13
2019-01-29T20:53:50.070Z,26.30
2019-01-29T20:56:17.619Z,26.43
2019-01-29T20:58:52.586Z,24.03
2019-01-29T21:01:14.458Z,27.13
2019-01-29T21:03:42.014Z,26.67
2019-01-29T21:06:09.538Z,25.33
2019-01-29T21:08:37.073Z,24.63
2019-01-29T21:11:04.680Z,22.67
2019-01-29T21:13:32.204Z,21.63
2019-01-29T21:15:59.720Z,22.33
2019-01-29T21:18:27.246Z,22.83
2019-01-29T21:20:57.181Z,23.77
2019-01-29T21:23:24.077Z,21.93
2019-01-29T21:25:55.529Z,20.57
2019-01-29T21:28:23.058Z,20.53
2019-01-29T21:30:52.127Z,22.33
2019-01-29T21:33:19.647Z,21.13
2019-01-29T21:35:47.198Z,19.50
2019-01-29T21:38:14.731Z,19.70
2019-01-29T21:40:42.243Z,20.03
2019-01-29T21:43:09.839Z,20.13
2019-01-29T21:45:37.352Z,19.93
2019-01-29T21:48:05.412Z,20.13
2019-01-29T21:50:33.098Z,20.97
2019-01-29T21:53:00.818Z,20.70
2019-01-29T21:55:28.413Z,20.93
2019-01-29T21:57:56.247Z,20.20
2019-01-29T22:00:32.354Z,19.57
2019-01-29T22:03:00.116Z,18.30
2019-01-29T22:05:27.612Z,18.80
2019-01-29T22:07:57.479Z,18.20
2019-01-29T22:10:24.758Z,19.67
2019-01-29T22:12:52.328Z,20.13
2019-01-29T22:15:19.958Z,18.50
2019-01-29T22:17:47.542Z,18.57
2019-01-29T22:20:16.942Z,20.00
2019-01-29T22:22:44.509Z,22.00
2019-01-29T22:25:14.130Z,22.73
2019-01-29T22:27:42.376Z,19.93
2019-01-29T22:30:13.833Z,18.13
2019-01-29T22:32:41.500Z,19.57
2019-01-29T22:35:09.154Z,18.43
2019-01-29T22:37:36.698Z,18.07
2019-01-29T22:40:06.427Z,20.83
2019-01-29T22:42:33.998Z,20.73
2019-01-29T22:45:01.588Z,19.23
2019-01-29T22:47:29.190Z,19.90
2019-01-29T22:49:56.889Z,18.53
2019-01-29T22:52:24.395Z,18.37
2019-01-29T22:54:51.901Z,19.00
2019-01-29T22:57:19.587Z,18.00
2019-01-29T22:59:47.111Z,18.53
2019-01-29T23:02:14.631Z,18.57
2019-01-29T23:04:45.014Z,17.97
2019-01-29T23:07:24.520Z,21.17
2019-01-29T23:09:52.098Z,18.33
2019-01-29T23:12:19.656Z,18.97
2019-01-29T23:14:47.214Z,18.87
2019-01-29T23:17:14.738Z,19.23
2019-01-29T23:19:42.290Z,20.70
2019-01-29T23:22:09.825Z,20.07
2019-01-29T23:24:37.335Z,19.37
2019-01-29T23:27:04.848Z,19.00
2019-01-29T23:29:32.366Z,18.80
2019-01-29T23:31:59.920Z,18.30
2019-01-29T23:34:27.420Z,17.60
2019-01-29T23:36:54.937Z,18.23
2019-01-29T23:41:55.402Z,17.83
2019-01-29T23:44:22.918Z,18.93
2019-01-29T23:46:50.423Z,17.87
2019-01-29T23:49:18.049Z,17.33
2019-01-29T23:51:45.574Z,17.23
2019-01-29T23:54:13.102Z,18.00
2019-01-29T23:56:40.652Z,18.27
2019-01-29T23:59:08.171Z,17.40
